Time;durP1;ratioP1;P1;durP2;ratioP2;P2;SDS_P1;SDS_P2;PMS_P1;PMS_P2;Temp;Humidity;BMP_temperature;BMP_pressure;BME280_temperature;BME280_humidity;BME280_pressure;Samples;Min_cycle;Max_cycle;Signal;HPM_P1;HPM_P2
2023/09/24 00:02:11;;;;;;;1.83;1.55;;;28.30;55.40;;;;;;5011227;28;20053;-67
2023/09/24 00:04:38;;;;;;;1.73;1.60;;;28.40;55.40;;;;;;5011175;28;20057;-67
2023/09/24 00:07:05;;;;;;;4.57;1.77;;;28.40;55.40;;;;;;5010222;28;20033;-67
2023/09/24 00:09:32;;;;;;;1.48;1.38;;;28.30;55.40;;;;;;5007270;28;20034;-67
2023/09/24 00:11:58;;;;;;;3.83;1.85;;;28.40;55.50;;;;;;5030742;28;20386;-65
2023/09/24 00:14:27;;;;;;;3.45;2.38;;;28.30;55.60;;;;;;5030876;28;20038;-67
2023/09/24 00:16:54;;;;;;;2.20;2.00;;;28.40;55.60;;;;;;5011823;28;20034;-66
2023/09/24 00:19:20;;;;;;;2.85;1.70;;;28.30;55.50;;;;;;4992848;28;20499;-67
2023/09/24 00:21:46;;;;;;;2.22;2.05;;;28.40;55.50;;;;;;5010576;28;20058;-67
2023/09/24 00:24:17;;;;;;;5.68;2.00;;;28.50;55.50;;;;;;5010812;28;20045;-66
2023/09/24 00:26:43;;;;;;;2.08;1.70;;;28.30;55.50;;;;;;5010678;28;20049;-67
2023/09/24 00:29:10;;;;;;;2.90;1.75;;;28.30;55.50;;;;;;5010937;28;20193;-65
2023/09/24 00:31:36;;;;;;;7.45;1.98;;;28.30;55.60;;;;;;5010658;28;20045;-67
2023/09/24 00:34:02;;;;;;;1.95;1.70;;;28.30;55.60;;;;;;5010823;28;20034;-67
2023/09/24 00:36:28;;;;;;;3.67;1.77;;;28.40;55.70;;;;;;5007567;28;20032;-66
2023/09/24 00:38:54;;;;;;;2.70;2.17;;;28.20;55.80;;;;;;5014313;28;20697;-67
2023/09/24 00:41:20;;;;;;;4.28;1.95;;;28.30;55.80;;;;;;5011952;28;20411;-67
2023/09/24 00:43:46;;;;;;;2.42;1.75;;;28.20;55.90;;;;;;5012878;28;20107;-66
2023/09/24 00:46:14;;;;;;;2.65;1.80;;;28.30;55.90;;;;;;5012606;28;20037;-67
2023/09/24 00:48:40;;;;;;;1.77;1.67;;;28.30;56.00;;;;;;5012967;28;20041;-67
2023/09/24 00:51:16;;;;;;;2.00;1.83;;;28.30;56.00;;;;;;5013436;28;20026;-66
2023/09/24 00:53:42;;;;;;;3.05;1.80;;;28.30;56.00;;;;;;5014006;28;20036;-67
2023/09/24 00:56:09;;;;;;;2.83;2.05;;;28.40;56.00;;;;;;5011934;28;20034;-66
2023/09/24 00:58:36;;;;;;;2.33;1.98;;;28.20;56.10;;;;;;5014112;28;20080;-67
2023/09/24 01:01:06;;;;;;;4.30;1.90;;;28.30;56.00;;;;;;5013523;28;20029;-66
2023/09/24 01:03:32;;;;;;;2.13;1.90;;;28.20;56.00;;;;;;5012027;28;20116;-66
2023/09/24 01:05:59;;;;;;;2.85;2.17;;;28.20;56.00;;;;;;5030864;28;20110;-67
2023/09/24 01:08:33;;;;;;;2.20;1.90;;;28.30;56.00;;;;;;5014548;28;20136;-66
2023/09/24 01:11:01;;;;;;;2.47;1.70;;;28.20;55.90;;;;;;5029982;28;20046;-67
2023/09/24 01:13:37;;;;;;;5.85;2.28;;;28.30;55.90;;;;;;5014489;28;20574;-67
2023/09/24 01:16:06;;;;;;;3.60;2.28;;;28.30;55.90;;;;;;5030686;28;20051;-67
2023/09/24 01:18:37;;;;;;;3.70;1.90;;;28.20;56.00;;;;;;5030785;28;20033;-67
2023/09/24 01:21:09;;;;;;;2.20;2.00;;;28.20;56.00;;;;;;5029275;28;20060;-65
2023/09/24 01:23:44;;;;;;;4.82;1.80;;;28.20;56.00;;;;;;5030800;28;20517;-67
2023/09/24 01:26:11;;;;;;;2.40;1.85;;;28.20;56.10;;;;;;5029706;28;20065;-66
2023/09/24 01:28:37;;;;;;;2.53;2.00;;;28.20;56.20;;;;;;5013892;28;20091;-67
2023/09/24 01:31:04;;;;;;;4.10;1.92;;;28.20;56.30;;;;;;5030182;28;20060;-67
2023/09/24 01:33:31;;;;;;;2.20;1.73;;;28.20;56.30;;;;;;5030826;28;20091;-66
2023/09/24 01:35:58;;;;;;;2.35;1.65;;;28.20;56.40;;;;;;5029014;28;20037;-66
2023/09/24 01:38:25;;;;;;;2.90;2.20;;;28.30;56.40;;;;;;5012504;28;20029;-66
2023/09/24 01:40:53;;;;;;;2.30;1.58;;;28.30;56.40;;;;;;4998404;28;20495;-66
2023/09/24 01:43:20;;;;;;;6.13;2.10;;;28.30;56.50;;;;;;4959947;28;20038;-66
2023/09/24 01:45:47;;;;;;;2.78;2.30;;;28.40;56.50;;;;;;4998636;28;20117;-67
2023/09/24 01:48:17;;;;;;;3.72;1.67;;;28.20;56.50;;;;;;5013162;28;20030;-66
2023/09/24 01:50:43;;;;;;;3.60;2.03;;;28.30;56.50;;;;;;5013021;28;20038;-67
2023/09/24 01:53:09;;;;;;;2.50;1.77;;;28.20;56.60;;;;;;5011694;28;20467;-67
2023/09/24 01:55:39;;;;;;;2.03;1.65;;;28.30;56.50;;;;;;5010971;28;20116;-66
2023/09/24 01:58:06;;;;;;;2.45;1.70;;;28.30;56.50;;;;;;5011713;28;20443;-67
2023/09/24 02:00:32;;;;;;;2.78;1.85;;;28.20;56.50;;;;;;4995353;28;20770;-65
2023/09/24 02:03:00;;;;;;;4.15;1.48;;;28.10;56.50;;;;;;4992154;28;20104;-66
2023/09/24 02:05:33;;;;;;;3.05;2.00;;;28.30;56.50;;;;;;5005994;28;20032;-66
2023/09/24 02:08:05;;;;;;;2.65;1.65;;;28.30;56.50;;;;;;5012919;28;20328;-66
2023/09/24 02:10:31;;;;;;;4.22;1.65;;;28.10;56.60;;;;;;5010518;28;20042;-68
2023/09/24 02:12:57;;;;;;;1.83;1.73;;;28.10;56.60;;;;;;5012798;28;20065;-67
2023/09/24 02:15:25;;;;;;;5.20;2.10;;;28.20;56.70;;;;;;5012226;28;20029;-67
2023/09/24 02:17:51;;;;;;;2.53;2.28;;;28.10;56.70;;;;;;4996850;28;20038;-66
2023/09/24 02:20:25;;;;;;;1.90;1.77;;;28.00;56.70;;;;;;5007358;28;20034;-66
2023/09/24 02:22:57;;;;;;;3.38;1.73;;;28.10;56.70;;;;;;5012409;28;20081;-67
2023/09/24 02:25:26;;;;;;;2.47;1.73;;;28.10;56.70;;;;;;5011647;28;20056;-66
2023/09/24 02:27:52;;;;;;;3.22;2.35;;;28.10;56.70;;;;;;4994841;28;20038;-66
2023/09/24 02:30:20;;;;;;;2.33;2.13;;;28.10;56.80;;;;;;5010523;28;20030;-67
2023/09/24 02:32:46;;;;;;;2.00;1.80;;;28.20;56.80;;;;;;5012389;28;20042;-64
2023/09/24 02:35:13;;;;;;;3.10;1.90;;;28.10;56.80;;;;;;5011898;28;20029;-67
2023/09/24 02:37:45;;;;;;;2.28;2.03;;;28.00;56.90;;;;;;5012759;28;20037;-67
2023/09/24 02:40:22;;;;;;;2.17;1.90;;;28.00;56.90;;;;;;5010347;28;20053;-67
2023/09/24 02:42:52;;;;;;;2.90;2.63;;;28.10;56.90;;;;;;5012404;28;20034;-67
2023/09/24 02:45:18;;;;;;;5.45;1.98;;;28.00;57.00;;;;;;5010627;28;20141;-67
2023/09/24 02:47:49;;;;;;;2.97;2.10;;;28.10;56.90;;;;;;5011107;28;20034;-67
2023/09/24 02:50:23;;;;;;;3.85;2.17;;;28.10;57.10;;;;;;5000289;28;20513;-65
2023/09/24 02:52:53;;;;;;;3.80;2.60;;;28.00;57.20;;;;;;4994632;28;20561;-67
2023/09/24 02:55:19;;;;;;;2.40;2.20;;;28.10;57.40;;;;;;5028249;28;20057;-67
2023/09/24 02:57:46;;;;;;;2.90;2.38;;;28.10;57.40;;;;;;5028652;28;20128;-67
2023/09/24 03:02:44;;;;;;;1.90;1.73;;;28.00;57.50;;;;;;5028915;28;20046;-67
2023/09/24 03:05:12;;;;;;;2.92;1.77;;;28.00;57.60;;;;;;5028863;28;20085;-66
2023/09/24 03:07:44;;;;;;;5.40;2.35;;;28.10;57.60;;;;;;5012451;28;20029;-66
2023/09/24 03:10:13;;;;;;;2.20;2.00;;;28.00;57.60;;;;;;5028030;28;20085;-66
2023/09/24 03:12:40;;;;;;;3.13;2.00;;;28.20;57.70;;;;;;5028670;28;20119;-67
2023/09/24 03:15:10;;;;;;;2.95;2.58;;;28.10;57.70;;;;;;5028555;28;20548;-67
2023/09/24 03:17:37;;;;;;;3.17;2.00;;;28.10;57.70;;;;;;5028051;28;20094;-67
2023/09/24 03:20:14;;;;;;;2.58;2.30;;;28.20;57.70;;;;;;5011123;28;20046;-66
2023/09/24 03:22:42;;;;;;;5.47;2.35;;;28.20;57.80;;;;;;5028184;28;20503;-66
2023/09/24 03:25:10;;;;;;;4.60;2.40;;;28.20;57.70;;;;;;5027650;28;20500;-66
2023/09/24 03:27:41;;;;;;;2.95;2.40;;;28.20;57.70;;;;;;5011671;28;20021;-67
2023/09/24 03:30:09;;;;;;;3.05;2.13;;;28.20;57.70;;;;;;5008867;28;20471;-67
2023/09/24 03:32:37;;;;;;;3.58;2.97;;;28.10;57.70;;;;;;4960255;28;20103;-66
2023/09/24 03:35:09;;;;;;;3.08;2.10;;;28.20;57.70;;;;;;4988896;28;20517;-66
2023/09/24 03:37:40;;;;;;;3.45;2.50;;;28.20;57.60;;;;;;4973565;28;20031;-67
2023/09/24 03:40:16;;;;;;;2.30;1.92;;;28.30;57.70;;;;;;5002235;28;20056;-66
2023/09/24 03:42:42;;;;;;;2.78;2.22;;;28.20;57.60;;;;;;5008823;28;20088;-67
2023/09/24 03:45:19;;;;;;;2.40;2.17;;;28.30;57.60;;;;;;4964981;28;20118;-67
2023/09/24 03:47:46;;;;;;;2.53;2.15;;;28.30;57.60;;;;;;4976001;28;20118;-67
2023/09/24 03:50:14;;;;;;;2.70;2.42;;;28.30;57.60;;;;;;4975653;28;20723;-66
2023/09/24 03:52:42;;;;;;;2.83;2.38;;;28.30;57.60;;;;;;4969749;28;20039;-66
2023/09/24 03:55:08;;;;;;;3.05;2.00;;;28.50;57.60;;;;;;4993308;28;20043;-66
2023/09/24 03:57:35;;;;;;;3.08;2.53;;;28.30;57.60;;;;;;5002596;28;20471;-67
2023/09/24 04:00:03;;;;;;;7.00;2.85;;;28.50;57.60;;;;;;4996416;28;20147;-68
2023/09/24 04:02:43;;;;;;;4.60;2.10;;;28.40;57.60;;;;;;4989022;28;20058;-67
2023/09/24 04:05:14;;;;;;;2.03;1.92;;;28.30;57.60;;;;;;4975217;28;20038;-67
2023/09/24 04:07:40;;;;;;;2.35;2.13;;;28.30;57.60;;;;;;4993222;28;20143;-67
2023/09/24 04:10:07;;;;;;;3.72;2.35;;;28.30;57.60;;;;;;5010430;28;20116;-67
2023/09/24 04:12:34;;;;;;;3.50;2.83;;;28.40;57.60;;;;;;5012428;28;20429;-67
2023/09/24 04:15:01;;;;;;;6.47;2.55;;;28.40;57.50;;;;;;4998828;28;20512;-67
2023/09/24 04:17:28;;;;;;;3.05;2.42;;;28.50;57.50;;;;;;4993070;28;20042;-66
2023/09/24 04:19:53;;;;;;;3.35;2.53;;;28.50;57.50;;;;;;4995331;28;20054;-67
2023/09/24 04:22:19;;;;;;;3.40;2.65;;;28.40;57.50;;;;;;5012375;28;20089;-67
2023/09/24 04:24:45;;;;;;;2.80;1.92;;;28.40;57.50;;;;;;5010643;28;20114;-68
2023/09/24 04:27:11;;;;;;;5.70;2.70;;;28.50;57.40;;;;;;5014686;28;20042;-65
2023/09/24 04:29:37;;;;;;;2.58;2.10;;;28.50;57.40;;;;;;5014424;28;20421;-67
2023/09/24 04:32:03;;;;;;;3.88;2.33;;;28.30;57.40;;;;;;5013635;28;20470;-67
2023/09/24 04:34:29;;;;;;;2.72;2.00;;;28.40;57.40;;;;;;5014670;28;20041;-67
2023/09/24 04:36:55;;;;;;;4.40;2.80;;;28.30;57.50;;;;;;5014144;28;20030;-65
2023/09/24 04:39:22;;;;;;;4.50;2.70;;;28.40;57.50;;;;;;5013794;28;20026;-66
2023/09/24 04:41:48;;;;;;;3.05;2.40;;;28.30;57.50;;;;;;5014522;28;20109;-67
2023/09/24 04:44:14;;;;;;;2.85;2.60;;;28.30;57.50;;;;;;5013988;28;20037;-66
2023/09/24 04:46:40;;;;;;;4.25;2.63;;;28.30;57.50;;;;;;5013788;28;20033;-67
2023/09/24 04:49:08;;;;;;;2.75;2.45;;;28.40;57.50;;;;;;5012153;28;20112;-67
2023/09/24 04:51:36;;;;;;;2.72;2.13;;;28.40;57.50;;;;;;5014027;28;20038;-67
2023/09/24 04:54:03;;;;;;;5.35;2.80;;;28.50;57.50;;;;;;5012037;28;20088;-67
2023/09/24 04:56:29;;;;;;;5.57;2.40;;;28.50;57.50;;;;;;5013930;28;20383;-67
2023/09/24 04:58:55;;;;;;;2.97;2.05;;;28.40;57.50;;;;;;5013885;28;20073;-66
2023/09/24 05:01:22;;;;;;;2.50;2.15;;;28.40;57.40;;;;;;5013982;28;20037;-69
2023/09/24 05:03:49;;;;;;;7.32;2.65;;;28.40;57.40;;;;;;5012541;28;20040;-66
2023/09/24 05:06:16;;;;;;;3.00;2.58;;;28.40;57.40;;;;;;5012815;28;20044;-66
2023/09/24 05:08:43;;;;;;;3.00;2.45;;;28.50;57.40;;;;;;5013108;28;20069;-67
2023/09/24 05:11:13;;;;;;;2.70;2.30;;;28.30;57.40;;;;;;5013864;28;20112;-67
2023/09/24 05:13:40;;;;;;;3.30;2.22;;;28.20;57.40;;;;;;5013930;28;20029;-66
2023/09/24 05:16:07;;;;;;;2.25;2.03;;;28.30;57.40;;;;;;5011574;28;20041;-67
2023/09/24 05:18:33;;;;;;;3.35;2.42;;;28.30;57.30;;;;;;5012172;28;20034;-67
2023/09/24 05:20:59;;;;;;;3.28;2.42;;;28.30;57.40;;;;;;4995358;28;20054;-67
2023/09/24 05:23:25;;;;;;;3.03;2.38;;;28.30;57.50;;;;;;5013588;28;20054;-67
2023/09/24 05:25:51;;;;;;;5.35;2.92;;;28.30;57.60;;;;;;4992986;28;20039;-67
2023/09/24 05:28:18;;;;;;;3.17;2.67;;;28.30;57.60;;;;;;4996766;28;20033;-66
2023/09/24 05:30:54;;;;;;;3.22;2.67;;;28.20;57.60;;;;;;5013636;28;20034;-67
2023/09/24 05:33:21;;;;;;;4.05;2.45;;;28.20;57.60;;;;;;5012994;28;20486;-67
2023/09/24 05:35:51;;;;;;;3.17;2.30;;;28.40;57.60;;;;;;5013345;28;20049;-67
2023/09/24 05:38:18;;;;;;;2.88;2.20;;;28.30;57.70;;;;;;5012653;28;20433;-67
2023/09/24 05:40:45;;;;;;;3.50;2.25;;;28.30;57.60;;;;;;5010346;28;20041;-67
2023/09/24 05:43:11;;;;;;;3.38;2.78;;;28.40;57.70;;;;;;5012351;28;20049;-67
2023/09/24 05:45:47;;;;;;;5.13;2.35;;;28.40;57.60;;;;;;5012240;28;20536;-67
2023/09/24 05:48:15;;;;;;;3.53;2.70;;;28.40;57.60;;;;;;5013341;28;20074;-67
2023/09/24 05:50:41;;;;;;;3.97;2.67;;;28.50;57.60;;;;;;5013055;28;20530;-67
2023/09/24 05:53:10;;;;;;;3.70;2.45;;;28.30;57.60;;;;;;5011917;28;20117;-67
2023/09/24 05:55:36;;;;;;;3.55;2.95;;;28.40;57.60;;;;;;5012144;28;20052;-67
2023/09/24 05:58:04;;;;;;;3.55;3.10;;;28.20;57.60;;;;;;5012937;28;20079;-67
2023/09/24 06:00:31;;;;;;;2.60;2.35;;;28.40;57.60;;;;;;5012718;28;20458;-68
2023/09/24 06:02:58;;;;;;;0.65;0.65;;;28.30;57.60;;;;;;5010676;28;20042;-69
2023/09/24 06:05:24;;;;;;;0.50;0.50;;;28.30;57.60;;;;;;5006153;28;20029;-72
2023/09/24 06:07:50;;;;;;;0.70;0.70;;;28.20;58.70;;;;;;5009590;28;20369;-72
2023/09/24 06:10:16;;;;;;;0.70;0.70;;;28.30;58.20;;;;;;5011929;28;20038;-72
2023/09/24 06:12:42;;;;;;;1.30;1.20;;;28.20;57.90;;;;;;5012039;28;20044;-71
2023/09/24 06:15:10;;;;;;;1.55;1.40;;;28.30;57.70;;;;;;5012507;28;20030;-71
2023/09/24 06:17:36;;;;;;;2.10;1.90;;;28.30;57.40;;;;;;5012515;28;20042;-71
2023/09/24 06:20:03;;;;;;;2.97;2.20;;;28.20;57.00;;;;;;4978447;28;20562;-71
2023/09/24 06:22:29;;;;;;;2.38;1.95;;;28.30;56.90;;;;;;5010741;28;20042;-71
2023/09/24 06:24:55;;;;;;;7.10;2.55;;;28.30;56.90;;;;;;4998103;28;20130;-72
2023/09/24 06:27:22;;;;;;;3.63;2.50;;;28.30;57.00;;;;;;4993011;28;20507;-72
2023/09/24 06:29:48;;;;;;;5.78;3.10;;;28.40;56.90;;;;;;5012404;28;20455;-72
2023/09/24 06:32:14;;;;;;;8.75;2.83;;;28.50;58.00;;;;;;5009686;28;20395;-71
2023/09/24 06:34:40;;;;;;;4.95;3.38;;;28.50;57.60;;;;;;5011837;28;20044;-72
2023/09/24 06:37:06;;;;;;;5.32;4.82;;;28.50;56.80;;;;;;5010123;28;20172;-70
2023/09/24 06:39:33;;;;;;;6.28;3.08;;;28.50;57.80;;;;;;5012352;28;20112;-70
2023/09/24 06:42:02;;;;;;;3.28;2.80;;;28.70;56.40;;;;;;5012440;28;20037;-72
2023/09/24 06:44:29;;;;;;;3.55;2.78;;;28.60;55.80;;;;;;5011682;28;20042;-72
2023/09/24 06:46:55;;;;;;;3.65;2.80;;;28.50;55.50;;;;;;5010621;28;20037;-72
2023/09/24 06:49:21;;;;;;;5.85;3.33;;;28.60;55.30;;;;;;5012047;28;20026;-71
2023/09/24 06:51:48;;;;;;;3.28;2.72;;;28.60;55.30;;;;;;5011465;28;20171;-71
2023/09/24 06:54:14;;;;;;;3.25;2.58;;;28.70;54.90;;;;;;5012122;28;20064;-72
2023/09/24 06:56:40;;;;;;;5.82;2.35;;;28.50;54.80;;;;;;5010779;28;20036;-73
2023/09/24 06:59:09;;;;;;;3.20;2.60;;;28.70;55.30;;;;;;5011948;28;20105;-72
2023/09/24 07:01:37;;;;;;;3.60;2.70;;;28.50;54.20;;;;;;5011527;28;20477;-72
2023/09/24 07:04:05;;;;;;;2.60;2.40;;;28.60;54.30;;;;;;5011410;28;20489;-73
2023/09/24 07:06:32;;;;;;;3.72;2.58;;;28.60;55.10;;;;;;5010265;28;20029;-72
2023/09/24 07:08:58;;;;;;;4.95;2.80;;;28.50;54.90;;;;;;5011808;28;20124;-73
2023/09/24 07:11:34;;;;;;;5.18;2.63;;;28.60;55.00;;;;;;5010599;28;20045;-73
2023/09/24 07:14:01;;;;;;;2.55;2.15;;;28.70;54.70;;;;;;5010557;28;20044;-72
2023/09/24 07:16:27;;;;;;;5.82;3.10;;;28.60;55.10;;;;;;5008275;28;20128;-72
2023/09/24 07:18:55;;;;;;;3.42;2.78;;;28.70;56.10;;;;;;5011534;28;20418;-72
2023/09/24 07:21:22;;;;;;;4.50;2.80;;;28.60;57.20;;;;;;5006265;28;20053;-73
2023/09/24 07:23:51;;;;;;;8.32;3.50;;;28.70;59.00;;;;;;5008980;28;20133;-73
2023/09/24 07:26:17;;;;;;;4.32;2.75;;;28.80;61.50;;;;;;5011333;28;20502;-74
2023/09/24 07:28:44;;;;;;;4.38;2.75;;;28.80;60.60;;;;;;5011268;28;20096;-74
2023/09/24 07:31:22;;;;;;;3.20;2.88;;;28.90;61.50;;;;;;4993757;28;20038;-74
2023/09/24 07:33:49;;;;;;;4.53;3.03;;;28.70;63.20;;;;;;5010374;28;20061;-73
2023/09/24 07:36:15;;;;;;;5.03;3.05;;;28.90;60.50;;;;;;5010017;28;20041;-73
2023/09/24 07:38:41;;;;;;;3.60;2.80;;;29.00;59.30;;;;;;4993389;28;20061;-72
2023/09/24 07:41:08;;;;;;;2.83;2.63;;;28.90;57.50;;;;;;5010903;28;20034;-73
2023/09/24 07:43:40;;;;;;;4.78;3.05;;;28.90;56.60;;;;;;5012841;28;20034;-72
2023/09/24 07:46:06;;;;;;;3.90;2.83;;;29.10;58.30;;;;;;5014302;28;20038;-72
2023/09/24 07:48:33;;;;;;;5.40;2.83;;;29.00;59.50;;;;;;5015569;28;20029;-73
2023/09/24 07:50:59;;;;;;;4.93;3.00;;;28.90;58.10;;;;;;5014252;28;20458;-72
2023/09/24 07:53:25;;;;;;;3.15;2.63;;;29.00;58.90;;;;;;5015165;28;20096;-72
2023/09/24 07:55:55;;;;;;;3.20;2.83;;;29.00;60.40;;;;;;5013956;28;20030;-72
2023/09/24 07:58:25;;;;;;;6.40;3.38;;;29.00;61.00;;;;;;5012229;28;20040;-73
2023/09/24 08:00:54;;;;;;;4.65;3.17;;;29.20;61.00;;;;;;5013614;28;20114;-73
2023/09/24 08:03:20;;;;;;;4.32;2.88;;;29.10;60.90;;;;;;5013597;28;20456;-72
2023/09/24 08:05:46;;;;;;;3.13;2.83;;;29.10;59.00;;;;;;5013635;28;20038;-72
2023/09/24 08:08:12;;;;;;;2.70;2.50;;;28.90;56.30;;;;;;5014275;28;20087;-74
2023/09/24 08:10:38;;;;;;;4.78;2.88;;;29.00;57.80;;;;;;5014252;28;20494;-69
2023/09/24 08:13:04;;;;;;;3.90;3.05;;;29.00;55.10;;;;;;5015070;28;20084;-72
2023/09/24 08:15:31;;;;;;;3.97;2.15;;;29.00;54.60;;;;;;5012386;28;20449;-69
2023/09/24 08:17:56;;;;;;;3.40;2.80;;;28.90;53.60;;;;;;5014888;28;20026;-70
2023/09/24 08:20:23;;;;;;;3.38;3.08;;;28.80;54.10;;;;;;5013059;28;20123;-71
2023/09/24 08:22:49;;;;;;;3.67;2.58;;;28.90;54.10;;;;;;4996635;28;20049;-70
2023/09/24 08:25:15;;;;;;;3.22;2.67;;;29.00;54.40;;;;;;4995628;28;20107;-68
2023/09/24 08:27:41;;;;;;;4.32;3.00;;;28.90;53.70;;;;;;5011368;28;20053;-68
2023/09/24 08:30:07;;;;;;;2.80;2.58;;;28.90;53.60;;;;;;5011544;28;20056;-68
2023/09/24 08:32:33;;;;;;;3.05;2.13;;;28.90;53.50;;;;;;4995397;28;20099;-70
2023/09/24 08:35:00;;;;;;;5.75;2.78;;;28.70;53.40;;;;;;5012524;28;20442;-68
2023/09/24 08:37:26;;;;;;;4.50;2.40;;;28.80;53.30;;;;;;5011102;28;20064;-69
2023/09/24 08:39:52;;;;;;;4.22;2.33;;;28.80;53.40;;;;;;5011861;28;20490;-69
2023/09/24 08:42:19;;;;;;;2.95;2.58;;;28.70;53.40;;;;;;5012092;28;20488;-72
2023/09/24 08:44:55;;;;;;;3.28;2.70;;;28.80;53.30;;;;;;4995518;28;20099;-72
2023/09/24 08:47:22;;;;;;;5.47;2.75;;;28.70;53.40;;;;;;4978405;28;20037;-69
2023/09/24 08:49:50;;;;;;;4.15;2.78;;;28.70;53.60;;;;;;5011333;28;20061;-71
2023/09/24 08:52:18;;;;;;;4.55;2.40;;;28.70;53.60;;;;;;5010961;28;20042;-70
2023/09/24 08:54:46;;;;;;;2.95;2.50;;;28.70;53.60;;;;;;4991939;28;20030;-72
2023/09/24 08:57:13;;;;;;;3.17;2.50;;;28.70;53.70;;;;;;5013541;28;20382;-75
2023/09/24 08:59:39;;;;;;;3.75;2.30;;;28.70;54.10;;;;;;5012662;28;20038;-71
2023/09/24 09:02:05;;;;;;;2.85;2.58;;;28.60;54.10;;;;;;5013909;28;20034;-71
2023/09/24 09:04:33;;;;;;;2.63;2.40;;;28.70;54.10;;;;;;5013971;28;20062;-73
2023/09/24 09:07:11;;;;;;;2.78;2.13;;;28.60;54.10;;;;;;5008218;28;20057;-71
2023/09/24 09:09:37;;;;;;;3.60;2.70;;;28.80;54.40;;;;;;5014279;28;20145;-69
2023/09/24 09:12:03;;;;;;;3.15;2.75;;;28.80;54.40;;;;;;5014148;28;20509;-69
2023/09/24 09:14:34;;;;;;;3.55;2.55;;;28.80;54.40;;;;;;5014380;28;20048;-69
2023/09/24 09:17:01;;;;;;;3.08;2.78;;;28.70;54.40;;;;;;5013995;28;20056;-69
2023/09/24 09:19:28;;;;;;;3.10;2.30;;;28.80;54.40;;;;;;5014087;28;20700;-69
2023/09/24 09:21:54;;;;;;;5.53;2.97;;;28.60;54.40;;;;;;5026810;28;20057;-69
2023/09/24 09:24:26;;;;;;;3.72;3.10;;;28.60;54.30;;;;;;5012331;28;20045;-69
2023/09/24 09:26:56;;;;;;;5.00;2.20;;;28.60;54.40;;;;;;5013381;28;20030;-69
2023/09/24 09:29:23;;;;;;;3.88;2.40;;;28.70;54.40;;;;;;5013546;28;20056;-69
2023/09/24 09:31:49;;;;;;;4.20;2.42;;;28.80;54.40;;;;;;5011358;28;20048;-69
2023/09/24 09:34:15;;;;;;;2.92;2.13;;;28.70;54.40;;;;;;5012686;28;20030;-69
2023/09/24 09:36:42;;;;;;;4.82;2.85;;;28.80;54.40;;;;;;5010170;28;20076;-68
2023/09/24 09:39:09;;;;;;;4.53;2.45;;;28.70;54.50;;;;;;5012719;28;20033;-68
2023/09/24 09:41:35;;;;;;;2.85;2.30;;;28.80;54.50;;;;;;5013329;28;20041;-69
2023/09/24 09:44:07;;;;;;;3.33;2.78;;;28.70;54.50;;;;;;5013030;28;20567;-68
2023/09/24 09:46:34;;;;;;;;;;;28.70;54.50;;;;;;5013278;28;20474;-69
2023/09/24 09:49:07;;;;;;;2.80;2.45;;;28.80;54.50;;;;;;5012226;28;20341;-69
2023/09/24 09:51:48;;;;;;;9.13;2.92;;;28.80;54.50;;;;;;5013250;28;20410;-67
2023/09/24 09:54:15;;;;;;;2.03;1.92;;;28.70;54.60;;;;;;5013275;28;20121;-68
2023/09/24 09:56:42;;;;;;;3.40;2.25;;;28.60;54.60;;;;;;5012942;28;20041;-70
2023/09/24 09:59:09;;;;;;;1.73;1.63;;;28.70;54.60;;;;;;5012751;28;20090;-69
2023/09/24 10:01:36;;;;;;;3.33;2.58;;;28.60;54.60;;;;;;5027415;28;20053;-68
2023/09/24 10:04:04;;;;;;;6.50;2.47;;;28.80;54.60;;;;;;5011843;28;20398;-68
2023/09/24 10:06:37;;;;;;;4.40;2.20;;;28.70;54.70;;;;;;5012714;28;20032;-69
2023/09/24 10:09:26;;;;;;;6.70;2.85;;;28.60;54.60;;;;;;5012428;28;20025;-69
2023/09/24 10:11:55;;;;;;;3.90;2.50;;;28.60;54.70;;;;;;5011226;28;20486;-69
2023/09/24 10:14:55;;;;;;;2.58;2.17;;;28.70;54.70;;;;;;5011722;28;20046;-69
2023/09/24 10:17:22;;;;;;;3.88;2.42;;;28.70;54.70;;;;;;5000296;28;20053;-69
2023/09/24 10:19:53;;;;;;;2.33;2.13;;;28.80;54.70;;;;;;4986789;28;20046;-69
2023/09/24 10:22:26;;;;;;;8.13;3.10;;;28.70;54.70;;;;;;5009605;28;20054;-68
2023/09/24 10:24:52;;;;;;;;;;;28.80;54.70;;;;;;4994585;28;20039;-69
2023/09/24 10:27:29;;;;;;;3.03;2.67;;;28.80;54.70;;;;;;4974078;28;19961;-69
2023/09/24 10:29:59;;;;;;;2.80;2.25;;;28.70;54.70;;;;;;5008352;28;20085;-69
2023/09/24 10:32:26;;;;;;;1.88;1.77;;;28.80;54.70;;;;;;5009957;28;20049;-69
2023/09/24 10:34:52;;;;;;;2.67;2.25;;;28.60;54.70;;;;;;4995590;28;20046;-68
2023/09/24 10:37:28;;;;;;;3.13;2.10;;;28.80;54.70;;;;;;4989643;28;20098;-69
2023/09/24 10:40:07;;;;;;;2.67;2.47;;;28.70;54.70;;;;;;4990507;28;20861;-73
2023/09/24 10:42:41;;;;;;;30.65;5.40;;;28.70;57.10;;;;;;4990206;28;20034;-69
2023/09/24 10:45:07;;;;;;;7.93;3.92;;;28.90;56.70;;;;;;4990517;28;20069;-68
2023/09/24 10:47:41;;;;;;;7.38;3.65;;;29.10;60.60;;;;;;4958171;28;20069;-68
2023/09/24 10:50:15;;;;;;;7.00;3.30;;;29.20;59.20;;;;;;4973918;28;20737;-67
2023/09/24 10:52:59;;;;;;;4.95;3.15;;;29.40;58.50;;;;;;4990680;28;20625;-67
2023/09/24 10:55:31;;;;;;;3.33;2.92;;;29.30;60.20;;;;;;4992762;28;20046;-74
2023/09/24 10:58:02;;;;;;;5.67;2.70;;;29.20;57.60;;;;;;4993537;28;20035;-70
2023/09/24 11:00:29;;;;;;;7.63;2.65;;;29.20;56.80;;;;;;5012234;28;20275;-72
2023/09/24 11:02:59;;;;;;;3.55;2.55;;;29.20;57.20;;;;;;5011819;28;20037;-71
2023/09/24 11:05:27;;;;;;;4.47;2.60;;;29.40;58.10;;;;;;5008106;28;20049;-70
2023/09/24 11:07:56;;;;;;;3.60;2.88;;;29.40;58.30;;;;;;5011287;28;20125;-70
2023/09/24 11:10:24;;;;;;;4.50;2.67;;;29.30;55.90;;;;;;5029090;28;20494;-71
2023/09/24 11:12:55;;;;;;;5.45;3.10;;;29.40;55.60;;;;;;5028992;28;20132;-70
2023/09/24 11:15:24;;;;;;;5.97;3.00;;;29.40;55.80;;;;;;5029308;28;20102;-71
2023/09/24 11:17:52;;;;;;;3.88;2.70;;;29.40;56.50;;;;;;5011371;28;20460;-75
2023/09/24 11:20:21;;;;;;;4.85;2.95;;;29.50;59.10;;;;;;5026620;28;20041;-72
2023/09/24 11:22:59;;;;;;;4.65;3.22;;;29.60;58.50;;;;;;5028293;28;20057;-69
2023/09/24 11:25:26;;;;;;;3.88;2.88;;;29.60;56.80;;;;;;5028889;28;20050;-70
2023/09/24 11:27:54;;;;;;;4.38;2.72;;;29.50;55.80;;;;;;5012041;28;20057;-71
2023/09/24 11:30:22;;;;;;;2.80;2.60;;;29.40;55.10;;;;;;5027892;28;20049;-71
2023/09/24 11:32:52;;;;;;;4.07;2.78;;;29.60;54.80;;;;;;4989281;28;20035;-68
2023/09/24 11:35:25;;;;;;;3.20;2.80;;;29.60;54.50;;;;;;5004228;28;20112;-71
2023/09/24 11:37:56;;;;;;;2.83;2.63;;;29.60;55.90;;;;;;5028671;28;20045;-71
2023/09/24 11:40:30;;;;;;;5.28;2.83;;;29.60;58.30;;;;;;5027169;28;20029;-72
2023/09/24 11:43:06;;;;;;;5.90;3.60;;;29.70;57.80;;;;;;5011103;28;20080;-73
2023/09/24 11:45:48;;;;;;;4.15;2.85;;;29.70;57.50;;;;;;5011661;28;20466;-70
2023/09/24 11:48:27;;;;;;;6.70;3.15;;;29.70;55.70;;;;;;5010014;28;20069;-73
2023/09/24 11:50:56;;;;;;;3.42;3.13;;;29.70;54.90;;;;;;5000734;28;20038;-72
2023/09/24 11:53:23;;;;;;;6.57;3.08;;;29.60;54.50;;;;;;4997823;28;20141;-73
2023/09/24 11:55:50;;;;;;;7.05;3.42;;;29.60;54.20;;;;;;5006626;28;20026;-72
2023/09/24 11:58:25;;;;;;;3.28;2.63;;;29.60;54.20;;;;;;5003378;28;20034;-72
2023/09/24 12:00:53;;;;;;;3.47;3.17;;;29.60;54.20;;;;;;5011031;28;20038;-71
2023/09/24 12:03:22;;;;;;;3.92;2.85;;;29.50;54.10;;;;;;5010953;28;20042;-72
2023/09/24 12:05:49;;;;;;;3.17;2.88;;;29.60;54.10;;;;;;5010336;28;20040;-71
2023/09/24 12:08:16;;;;;;;4.68;2.83;;;29.60;54.10;;;;;;5010873;28;20057;-72
2023/09/24 12:10:46;;;;;;;4.43;2.83;;;29.40;54.20;;;;;;4992698;28;20029;-71
2023/09/24 12:13:14;;;;;;;6.38;3.33;;;29.60;54.20;;;;;;5009249;28;20037;-72
2023/09/24 12:15:40;;;;;;;4.07;2.53;;;29.50;54.20;;;;;;5009411;28;20109;-73
2023/09/24 12:18:08;;;;;;;4.35;3.00;;;29.40;54.20;;;;;;5010654;28;20030;-73
2023/09/24 12:20:37;;;;;;;4.38;3.13;;;29.50;54.10;;;;;;5009374;28;20556;-71
2023/09/24 12:23:06;;;;;;;4.80;2.80;;;29.50;54.10;;;;;;5010727;28;20046;-70
2023/09/24 12:25:36;;;;;;;3.30;2.60;;;29.30;54.40;;;;;;5009254;28;20038;-73
2023/09/24 12:28:03;;;;;;;2.83;2.53;;;29.40;54.50;;;;;;5009078;28;20421;-72
2023/09/24 12:30:30;;;;;;;3.38;2.15;;;29.60;54.10;;;;;;5014501;28;20041;-71
2023/09/24 12:32:56;;;;;;;2.72;2.47;;;29.50;54.40;;;;;;5010573;28;20021;-70
2023/09/24 12:35:24;;;;;;;3.60;2.72;;;29.50;54.40;;;;;;5013074;28;20026;-70
2023/09/24 12:37:50;;;;;;;5.03;2.60;;;29.40;54.40;;;;;;5014983;28;20030;-70
2023/09/24 12:40:15;;;;;;;2.20;2.00;;;29.40;54.50;;;;;;5014443;28;20038;-70
2023/09/24 12:42:42;;;;;;;2.53;2.33;;;29.30;54.50;;;;;;5012097;28;20041;-70
2023/09/24 12:45:10;;;;;;;5.30;3.28;;;29.20;54.60;;;;;;5014741;28;20044;-70
2023/09/24 12:47:37;;;;;;;3.70;3.10;;;29.30;54.60;;;;;;5012832;28;20494;-71
2023/09/24 12:50:06;;;;;;;7.60;2.45;;;29.20;54.60;;;;;;5013215;28;20038;-71
2023/09/24 12:52:52;;;;;;;2.92;2.50;;;29.20;54.70;;;;;;5013943;28;20125;-75
2023/09/24 12:55:19;;;;;;;3.55;2.80;;;29.30;54.80;;;;;;5016066;28;20097;-73
2023/09/24 12:57:45;;;;;;;3.30;2.85;;;29.40;54.80;;;;;;5011891;28;20036;-71